sensor_id;sensor_type;location;lat;lon;timestamp;pressure;altitude;pressure_sealevel;temperature;humidity
45040;BME280;30778;53.574;7.770;2023-08-06T00:00:38;100701.63;;;12.41;58.52
45040;BME280;30778;53.574;7.770;2023-08-06T00:03:05;100706.50;;;12.32;58.59
45040;BME280;30778;53.574;7.770;2023-08-06T00:05:30;100695.69;;;12.38;58.64
45040;BME280;30778;53.574;7.770;2023-08-06T00:08:05;100701.84;;;12.37;58.50
45040;BME280;30778;53.574;7.770;2023-08-06T00:10:30;100685.19;;;12.38;58.72
45040;BME280;30778;53.574;7.770;2023-08-06T00:12:56;100685.13;;;12.39;58.63
45040;BME280;30778;53.574;7.770;2023-08-06T00:15:22;100691.84;;;12.27;58.54
45040;BME280;30778;53.574;7.770;2023-08-06T00:17:49;100696.25;;;12.27;58.43
45040;BME280;30778;53.574;7.770;2023-08-06T00:20:15;100688.91;;;12.16;58.80
45040;BME280;30778;53.574;7.770;2023-08-06T00:22:40;100690.69;;;12.16;58.87
45040;BME280;30778;53.574;7.770;2023-08-06T00:25:06;100696.91;;;12.13;58.48
45040;BME280;30778;53.574;7.770;2023-08-06T00:27:32;100702.47;;;12.07;58.66
45040;BME280;30778;53.574;7.770;2023-08-06T00:29:58;100700.91;;;12.03;58.67
45040;BME280;30778;53.574;7.770;2023-08-06T00:32:23;100693.28;;;11.98;58.75
45040;BME280;30778;53.574;7.770;2023-08-06T00:34:49;100698.81;;;11.92;59.08
45040;BME280;30778;53.574;7.770;2023-08-06T00:37:17;100693.88;;;11.86;59.10
45040;BME280;30778;53.574;7.770;2023-08-06T00:39:43;100693.03;;;11.85;59.10
45040;BME280;30778;53.574;7.770;2023-08-06T00:42:12;100690.63;;;11.81;59.02
45040;BME280;30778;53.574;7.770;2023-08-06T00:44:40;100689.09;;;11.75;58.88
45040;BME280;30778;53.574;7.770;2023-08-06T00:47:07;100699.56;;;11.75;59.04
45040;BME280;30778;53.574;7.770;2023-08-06T00:49:37;100699.72;;;11.72;59.00
45040;BME280;30778;53.574;7.770;2023-08-06T00:52:05;100688.72;;;11.65;59.29
45040;BME280;30778;53.574;7.770;2023-08-06T00:54:32;100691.25;;;11.67;58.89
45040;BME280;30778;53.574;7.770;2023-08-06T00:56:59;100695.72;;;11.65;59.05
45040;BME280;30778;53.574;7.770;2023-08-06T00:59:28;100692.59;;;11.57;58.98
45040;BME280;30778;53.574;7.770;2023-08-06T01:01:54;100694.31;;;11.58;58.78
45040;BME280;30778;53.574;7.770;2023-08-06T01:04:19;100685.81;;;11.53;58.66
45040;BME280;30778;53.574;7.770;2023-08-06T01:06:52;100684.41;;;11.45;58.43
45040;BME280;30778;53.574;7.770;2023-08-06T01:14:48;100693.66;;;11.53;57.90
45040;BME280;30778;53.574;7.770;2023-08-06T01:17:17;100697.72;;;11.41;57.97
45040;BME280;30778;53.574;7.770;2023-08-06T01:19:45;100686.13;;;11.46;57.86
45040;BME280;30778;53.574;7.770;2023-08-06T01:22:11;100695.88;;;11.43;58.10
45040;BME280;30778;53.574;7.770;2023-08-06T01:24:40;100693.31;;;11.41;58.14
45040;BME280;30778;53.574;7.770;2023-08-06T01:32:44;100682.00;;;11.60;57.51
45040;BME280;30778;53.574;7.770;2023-08-06T01:35:12;100685.53;;;11.59;57.45
45040;BME280;30778;53.574;7.770;2023-08-06T01:37:40;100681.13;;;11.59;57.59
45040;BME280;30778;53.574;7.770;2023-08-06T01:40:12;100678.47;;;11.61;57.61
45040;BME280;30778;53.574;7.770;2023-08-06T01:42:40;100670.94;;;11.72;57.41
45040;BME280;30778;53.574;7.770;2023-08-06T01:45:07;100665.91;;;11.67;57.17
45040;BME280;30778;53.574;7.770;2023-08-06T01:47:36;100669.25;;;11.71;57.29
45040;BME280;30778;53.574;7.770;2023-08-06T01:50:02;100658.28;;;11.82;57.21
45040;BME280;30778;53.574;7.770;2023-08-06T01:52:30;100668.53;;;11.86;57.17
45040;BME280;30778;53.574;7.770;2023-08-06T01:54:58;100668.94;;;11.96;57.10
45040;BME280;30778;53.574;7.770;2023-08-06T01:57:28;100672.63;;;11.92;57.08
45040;BME280;30778;53.574;7.770;2023-08-06T01:59:54;100663.53;;;11.63;58.12
45040;BME280;30778;53.574;7.770;2023-08-06T02:02:19;100664.53;;;11.97;57.35
45040;BME280;30778;53.574;7.770;2023-08-06T02:04:46;100664.53;;;11.97;56.92
45040;BME280;30778;53.574;7.770;2023-08-06T02:07:11;100659.13;;;12.00;57.03
45040;BME280;30778;53.574;7.770;2023-08-06T02:09:37;100653.47;;;12.09;56.85
45040;BME280;30778;53.574;7.770;2023-08-06T02:12:02;100657.94;;;12.07;56.50
45040;BME280;30778;53.574;7.770;2023-08-06T02:14:28;100651.91;;;12.05;56.71
45040;BME280;30778;53.574;7.770;2023-08-06T02:16:56;100650.06;;;12.07;56.64
45040;BME280;30778;53.574;7.770;2023-08-06T02:19:24;100646.50;;;12.08;56.80
45040;BME280;30778;53.574;7.770;2023-08-06T02:21:50;100645.75;;;12.06;56.60
45040;BME280;30778;53.574;7.770;2023-08-06T02:24:15;100650.06;;;12.07;56.54
45040;BME280;30778;53.574;7.770;2023-08-06T02:26:43;100642.75;;;12.14;56.34
45040;BME280;30778;53.574;7.770;2023-08-06T02:29:08;100638.41;;;12.13;56.47
45040;BME280;30778;53.574;7.770;2023-08-06T02:31:34;100629.72;;;12.12;56.35
45040;BME280;30778;53.574;7.770;2023-08-06T02:34:01;100630.25;;;12.19;56.15
45040;BME280;30778;53.574;7.770;2023-08-06T02:36:32;100635.44;;;12.20;56.32
45040;BME280;30778;53.574;7.770;2023-08-06T02:38:58;100632.72;;;12.22;56.29
45040;BME280;30778;53.574;7.770;2023-08-06T02:41:24;100632.94;;;12.17;56.46
45040;BME280;30778;53.574;7.770;2023-08-06T02:43:50;100625.94;;;12.18;56.49
45040;BME280;30778;53.574;7.770;2023-08-06T02:46:16;100634.91;;;12.14;56.35
45040;BME280;30778;53.574;7.770;2023-08-06T02:48:41;100642.28;;;12.23;56.13
45040;BME280;30778;53.574;7.770;2023-08-06T02:51:07;100638.41;;;12.13;56.32
45040;BME280;30778;53.574;7.770;2023-08-06T02:53:35;100641.75;;;12.16;56.31
45040;BME280;30778;53.574;7.770;2023-08-06T02:56:05;100637.75;;;12.09;56.35
45040;BME280;30778;53.574;7.770;2023-08-06T02:58:42;100635.56;;;12.17;56.38
45040;BME280;30778;53.574;7.770;2023-08-06T03:01:18;100625.44;;;12.11;56.37
45040;BME280;30778;53.574;7.770;2023-08-06T03:03:56;100626.47;;;12.24;56.39
45040;BME280;30778;53.574;7.770;2023-08-06T03:06:28;100628.19;;;12.25;56.26
45040;BME280;30778;53.574;7.770;2023-08-06T03:08:56;100627.34;;;12.25;56.33
45040;BME280;30778;53.574;7.770;2023-08-06T03:11:22;100625.78;;;12.21;56.50
45040;BME280;30778;53.574;7.770;2023-08-06T03:13:58;100628.41;;;12.21;56.41
45040;BME280;30778;53.574;7.770;2023-08-06T03:16:24;100627.63;;;12.19;56.58
45040;BME280;30778;53.574;7.770;2023-08-06T03:18:49;100629.09;;;12.24;56.46
45040;BME280;30778;53.574;7.770;2023-08-06T03:21:16;100617.69;;;12.25;56.33
45040;BME280;30778;53.574;7.770;2023-08-06T03:23:41;100623.94;;;12.23;56.26
45040;BME280;30778;53.574;7.770;2023-08-06T03:26:08;100619.72;;;12.20;56.30
45040;BME280;30778;53.574;7.770;2023-08-06T03:28:33;100612.84;;;12.18;56.50
45040;BME280;30778;53.574;7.770;2023-08-06T03:31:01;100610.91;;;12.21;56.40
45040;BME280;30778;53.574;7.770;2023-08-06T03:33:31;100601.13;;;12.25;56.72
45040;BME280;30778;53.574;7.770;2023-08-06T03:35:58;100601.13;;;12.25;56.60
45040;BME280;30778;53.574;7.770;2023-08-06T03:38:23;100598.75;;;12.20;56.55
45040;BME280;30778;53.574;7.770;2023-08-06T03:40:49;100599.22;;;12.11;56.50
45040;BME280;30778;53.574;7.770;2023-08-06T03:43:18;100607.94;;;12.12;56.43
45040;BME280;30778;53.574;7.770;2023-08-06T03:45:43;100602.59;;;12.13;56.58
45040;BME280;30778;53.574;7.770;2023-08-06T03:48:11;100603.47;;;12.14;56.76
45040;BME280;30778;53.574;7.770;2023-08-06T03:50:37;100605.84;;;12.18;56.78
45040;BME280;30778;53.574;7.770;2023-08-06T03:53:03;100597.75;;;12.23;56.89
45040;BME280;30778;53.574;7.770;2023-08-06T03:55:29;100591.94;;;12.34;56.54
45040;BME280;30778;53.574;7.770;2023-08-06T03:57:54;100599.13;;;12.30;56.68
45040;BME280;30778;53.574;7.770;2023-08-06T04:00:22;100596.56;;;12.28;56.52
45040;BME280;30778;53.574;7.770;2023-08-06T04:02:54;100598.81;;;12.36;56.58
45040;BME280;30778;53.574;7.770;2023-08-06T04:05:20;100591.94;;;12.34;56.53
45040;BME280;30778;53.574;7.770;2023-08-06T04:07:45;100586.72;;;12.34;56.52
45040;BME280;30778;53.574;7.770;2023-08-06T04:10:13;100583.47;;;12.28;56.65
45040;BME280;30778;53.574;7.770;2023-08-06T04:12:41;100585.59;;;12.38;56.51
45040;BME280;30778;53.574;7.770;2023-08-06T04:15:07;100578.84;;;12.34;56.47
45040;BME280;30778;53.574;7.770;2023-08-06T04:17:33;100574.59;;;12.31;56.55
45040;BME280;30778;53.574;7.770;2023-08-06T04:20:03;100571.75;;;12.36;56.66
45040;BME280;30778;53.574;7.770;2023-08-06T04:22:29;100580.53;;;12.35;56.72
45040;BME280;30778;53.574;7.770;2023-08-06T04:24:54;100581.38;;;12.35;56.64
45040;BME280;30778;53.574;7.770;2023-08-06T04:27:20;100582.00;;;12.40;56.60
45040;BME280;30778;53.574;7.770;2023-08-06T04:29:47;100583.19;;;12.50;56.54
45040;BME280;30778;53.574;7.770;2023-08-06T04:32:12;100582.81;;;12.58;55.99
45040;BME280;30778;53.574;7.770;2023-08-06T04:34:42;100575.25;;;12.69;55.99
45040;BME280;30778;53.574;7.770;2023-08-06T04:37:09;100587.25;;;12.74;55.45
45040;BME280;30778;53.574;7.770;2023-08-06T04:39:34;100575.41;;;12.82;55.54
45040;BME280;30778;53.574;7.770;2023-08-06T04:42:00;100580.00;;;12.79;55.44
45040;BME280;30778;53.574;7.770;2023-08-06T04:44:26;100586.91;;;12.80;55.62
45040;BME280;30778;53.574;7.770;2023-08-06T04:46:54;100587.34;;;12.88;55.57
45040;BME280;30778;53.574;7.770;2023-08-06T04:49:20;100588.78;;;12.94;55.31
45040;BME280;30778;53.574;7.770;2023-08-06T04:51:49;100587.16;;;12.91;55.46
45040;BME280;30778;53.574;7.770;2023-08-06T04:54:14;100587.53;;;12.85;55.48
45040;BME280;30778;53.574;7.770;2023-08-06T04:56:42;100583.63;;;12.76;55.84
45040;BME280;30778;53.574;7.770;2023-08-06T04:59:08;100587.25;;;12.74;56.20
45040;BME280;30778;53.574;7.770;2023-08-06T05:01:36;100591.38;;;12.78;56.47
45040;BME280;30778;53.574;7.770;2023-08-06T05:04:04;100585.06;;;12.82;56.30
45040;BME280;30778;53.574;7.770;2023-08-06T05:06:29;100595.03;;;12.91;56.37
45040;BME280;30778;53.574;7.770;2023-08-06T05:08:57;100585.94;;;12.98;56.34
45040;BME280;30778;53.574;7.770;2023-08-06T05:11:24;100589.81;;;13.07;56.05
45040;BME280;30778;53.574;7.770;2023-08-06T05:13:49;100591.44;;;13.09;56.03
45040;BME280;30778;53.574;7.770;2023-08-06T05:16:17;100581.00;;;13.08;56.20
45040;BME280;30778;53.574;7.770;2023-08-06T05:18:42;100594.38;;;13.19;56.23
45040;BME280;30778;53.574;7.770;2023-08-06T05:21:08;100592.69;;;13.34;55.89
45040;BME280;30778;53.574;7.770;2023-08-06T05:23:34;100596.56;;;13.43;55.66
45040;BME280;30778;53.574;7.770;2023-08-06T05:26:01;100599.19;;;13.43;55.34
45040;BME280;30778;53.574;7.770;2023-08-06T05:28:27;100596.91;;;13.52;55.63
45040;BME280;30778;53.574;7.770;2023-08-06T05:30:53;100597.44;;;13.59;55.78
45040;BME280;30778;53.574;7.770;2023-08-06T05:33:19;100598.06;;;13.63;55.42
45040;BME280;30778;53.574;7.770;2023-08-06T05:35:44;100598.75;;;13.66;55.44
45040;BME280;30778;53.574;7.770;2023-08-06T05:38:09;100600.28;;;13.70;55.48
45040;BME280;30778;53.574;7.770;2023-08-06T05:40:35;100603.94;;;13.68;54.87
45040;BME280;30778;53.574;7.770;2023-08-06T05:43:00;100599.59;;;13.67;54.89
45040;BME280;30778;53.574;7.770;2023-08-06T05:45:26;100595.88;;;13.71;54.84
45040;BME280;30778;53.574;7.770;2023-08-06T05:47:51;100600.03;;;13.75;55.21
45040;BME280;30778;53.574;7.770;2023-08-06T05:50:21;100602.72;;;13.73;54.51
45040;BME280;30778;53.574;7.770;2023-08-06T05:52:49;100601.19;;;13.85;54.69
45040;BME280;30778;53.574;7.770;2023-08-06T05:55:19;100598.03;;;13.94;54.53
45040;BME280;30778;53.574;7.770;2023-08-06T05:57:47;100606.66;;;13.97;54.45
45040;BME280;30778;53.574;7.770;2023-08-06T06:00:13;100593.59;;;13.95;54.35
45040;BME280;30778;53.574;7.770;2023-08-06T06:02:39;100602.72;;;14.04;54.80
45040;BME280;30778;53.574;7.770;2023-08-06T06:05:07;100610.63;;;14.18;54.43
45040;BME280;30778;53.574;7.770;2023-08-06T06:07:34;100608.03;;;14.32;53.48
45040;BME280;30778;53.574;7.770;2023-08-06T06:10:05;100607.66;;;14.24;53.95
45040;BME280;30778;53.574;7.770;2023-08-06T06:12:31;100615.66;;;14.37;53.96
45040;BME280;30778;53.574;7.770;2023-08-06T06:14:59;100608.47;;;14.55;53.24
45040;BME280;30778;53.574;7.770;2023-08-06T06:17:26;100603.38;;;14.66;53.46
45040;BME280;30778;53.574;7.770;2023-08-06T06:19:52;100598.13;;;14.66;53.70
45040;BME280;30778;53.574;7.770;2023-08-06T06:22:17;100594.44;;;14.69;52.95
45040;BME280;30778;53.574;7.770;2023-08-06T06:24:43;100601.47;;;14.83;53.52
45040;BME280;30778;53.574;7.770;2023-08-06T06:27:08;100603.00;;;14.87;53.13
45040;BME280;30778;53.574;7.770;2023-08-06T06:29:34;100600.91;;;14.92;53.34
45040;BME280;30778;53.574;7.770;2023-08-06T06:31:59;100594.13;;;15.02;53.54
45040;BME280;30778;53.574;7.770;2023-08-06T06:34:25;100593.94;;;15.05;52.34
45040;BME280;30778;53.574;7.770;2023-08-06T06:36:50;100587.00;;;14.90;52.50
45040;BME280;30778;53.574;7.770;2023-08-06T06:39:16;100583.91;;;14.97;52.85
45040;BME280;30778;53.574;7.770;2023-08-06T06:41:41;100592.84;;;14.81;52.55
45040;BME280;30778;53.574;7.770;2023-08-06T06:44:16;100586.41;;;14.99;52.51
45040;BME280;30778;53.574;7.770;2023-08-06T06:46:44;100594.09;;;15.16;52.54
45040;BME280;30778;53.574;7.770;2023-08-06T06:49:10;100593.53;;;15.26;51.16
45040;BME280;30778;53.574;7.770;2023-08-06T06:51:35;100590.16;;;15.24;51.97
45040;BME280;30778;53.574;7.770;2023-08-06T06:54:01;100599.06;;;15.35;52.81
45040;BME280;30778;53.574;7.770;2023-08-06T06:56:29;100594.63;;;15.36;51.96
45040;BME280;30778;53.574;7.770;2023-08-06T06:58:56;100589.59;;;15.46;52.66
45040;BME280;30778;53.574;7.770;2023-08-06T07:01:22;100587.38;;;15.67;51.70
45040;BME280;30778;53.574;7.770;2023-08-06T07:03:48;100593.06;;;15.73;50.85
45040;BME280;30778;53.574;7.770;2023-08-06T07:06:16;100588.66;;;15.74;50.43
45040;BME280;30778;53.574;7.770;2023-08-06T07:08:44;100593.81;;;16.15;49.71
45040;BME280;30778;53.574;7.770;2023-08-06T07:11:14;100593.81;;;16.15;50.53
45040;BME280;30778;53.574;7.770;2023-08-06T07:13:42;100591.69;;;16.08;50.68
45040;BME280;30778;53.574;7.770;2023-08-06T07:16:08;100590.00;;;16.07;50.19
45040;BME280;30778;53.574;7.770;2023-08-06T07:18:33;100593.25;;;15.97;50.29
45040;BME280;30778;53.574;7.770;2023-08-06T07:21:00;100597.50;;;15.86;49.89
45040;BME280;30778;53.574;7.770;2023-08-06T07:23:25;100598.03;;;16.18;49.63
45040;BME280;30778;53.574;7.770;2023-08-06T07:25:51;100602.03;;;16.49;48.66
45040;BME280;30778;53.574;7.770;2023-08-06T07:28:17;100599.81;;;16.81;47.82
45040;BME280;30778;53.574;7.770;2023-08-06T07:30:45;100597.78;;;16.85;48.32
45040;BME280;30778;53.574;7.770;2023-08-06T07:33:11;100606.44;;;16.87;48.91
45040;BME280;30778;53.574;7.770;2023-08-06T07:35:39;100605.16;;;16.93;47.95
45040;BME280;30778;53.574;7.770;2023-08-06T07:38:05;100600.31;;;17.23;46.71
45040;BME280;30778;53.574;7.770;2023-08-06T07:40:31;100607.28;;;17.24;47.26
45040;BME280;30778;53.574;7.770;2023-08-06T07:42:57;100603.22;;;17.08;46.26
45040;BME280;30778;53.574;7.770;2023-08-06T07:45:22;100606.19;;;17.03;47.29
45040;BME280;30778;53.574;7.770;2023-08-06T07:47:47;100611.41;;;16.92;47.76
45040;BME280;30778;53.574;7.770;2023-08-06T07:50:15;100601.84;;;17.02;46.78
45040;BME280;30778;53.574;7.770;2023-08-06T07:52:43;100612.69;;;17.23;47.68
45040;BME280;30778;53.574;7.770;2023-08-06T07:55:11;100616.66;;;17.29;47.19
45040;BME280;30778;53.574;7.770;2023-08-06T07:57:36;100623.31;;;17.34;46.67
45040;BME280;30778;53.574;7.770;2023-08-06T08:00:03;100620.03;;;17.68;45.94
45040;BME280;30778;53.574;7.770;2023-08-06T08:02:38;100615.19;;;17.97;45.48
45040;BME280;30778;53.574;7.770;2023-08-06T08:05:03;100612.53;;;18.32;45.52
45040;BME280;30778;53.574;7.770;2023-08-06T08:07:29;100611.00;;;18.41;44.04
45040;BME280;30778;53.574;7.770;2023-08-06T08:09:56;100615.19;;;18.21;44.44
45040;BME280;30778;53.574;7.770;2023-08-06T08:12:22;100615.78;;;18.47;43.94
45040;BME280;30778;53.574;7.770;2023-08-06T08:14:47;100611.50;;;18.91;42.81
45040;BME280;30778;53.574;7.770;2023-08-06T08:17:13;100613.69;;;19.29;43.46
45040;BME280;30778;53.574;7.770;2023-08-06T08:19:41;100610.53;;;20.00;42.08
45040;BME280;30778;53.574;7.770;2023-08-06T08:22:11;100610.56;;;20.21;41.85
45040;BME280;30778;53.574;7.770;2023-08-06T08:24:37;100610.56;;;20.21;41.31
45040;BME280;30778;53.574;7.770;2023-08-06T08:27:05;100602.91;;;20.28;41.46
45040;BME280;30778;53.574;7.770;2023-08-06T08:29:33;100606.13;;;20.22;40.59
45040;BME280;30778;53.574;7.770;2023-08-06T08:31:58;100600.81;;;20.22;40.07
45040;BME280;30778;53.574;7.770;2023-08-06T08:34:24;100595.72;;;20.19;39.94
45040;BME280;30778;53.574;7.770;2023-08-06T08:36:49;100594.53;;;20.53;40.01
45040;BME280;30778;53.574;7.770;2023-08-06T08:39:15;100597.78;;;20.67;40.51
45040;BME280;30778;53.574;7.770;2023-08-06T08:41:42;100603.22;;;20.65;39.59
45040;BME280;30778;53.574;7.770;2023-08-06T08:44:09;100601.84;;;20.19;39.44
45040;BME280;30778;53.574;7.770;2023-08-06T08:46:56;100603.94;;;20.37;40.13
45040;BME280;30778;53.574;7.770;2023-08-06T08:49:23;100599.69;;;20.24;39.95
45040;BME280;30778;53.574;7.770;2023-08-06T08:51:53;100603.94;;;20.16;39.58
45040;BME280;30778;53.574;7.770;2023-08-06T08:54:20;100594.63;;;20.73;38.92
45040;BME280;30778;53.574;7.770;2023-08-06T08:56:48;100593.13;;;20.07;38.80
45040;BME280;30778;53.574;7.770;2023-08-06T08:59:14;100598.09;;;21.24;38.29
45040;BME280;30778;53.574;7.770;2023-08-06T09:01:40;100595.34;;;21.64;36.48
45040;BME280;30778;53.574;7.770;2023-08-06T09:04:07;100595.34;;;21.54;36.94
45040;BME280;30778;53.574;7.770;2023-08-06T09:06:36;100592.34;;;21.09;37.25
45040;BME280;30778;53.574;7.770;2023-08-06T09:09:13;100589.28;;;20.73;37.23
45040;BME280;30778;53.574;7.770;2023-08-06T09:11:44;100586.56;;;20.53;37.65
45040;BME280;30778;53.574;7.770;2023-08-06T09:14:13;100586.03;;;20.29;38.20
45040;BME280;30778;53.574;7.770;2023-08-06T09:16:39;100596.09;;;21.06;37.29
45040;BME280;30778;53.574;7.770;2023-08-06T09:19:12;100590.97;;;21.34;36.47
45040;BME280;30778;53.574;7.770;2023-08-06T09:21:41;100591.34;;;22.27;35.33
45040;BME280;30778;53.574;7.770;2023-08-06T09:24:15;100590.19;;;22.39;35.11
45040;BME280;30778;53.574;7.770;2023-08-06T09:26:44;100587.72;;;22.18;35.71
45040;BME280;30778;53.574;7.770;2023-08-06T09:29:11;100588.59;;;22.18;34.56
45040;BME280;30778;53.574;7.770;2023-08-06T09:31:50;100586.28;;;22.71;33.57
45040;BME280;30778;53.574;7.770;2023-08-06T09:34:22;100593.19;;;22.16;33.72
45040;BME280;30778;53.574;7.770;2023-08-06T09:36:49;100589.56;;;22.55;34.04
45040;BME280;30778;53.574;7.770;2023-08-06T09:39:21;100589.41;;;22.00;34.49
45040;BME280;30778;53.574;7.770;2023-08-06T09:41:47;100592.25;;;21.69;35.25
45040;BME280;30778;53.574;7.770;2023-08-06T09:44:20;100593.91;;;21.21;35.32
45040;BME280;30778;53.574;7.770;2023-08-06T09:46:54;100592.56;;;21.56;35.32
45040;BME280;30778;53.574;7.770;2023-08-06T09:49:27;100587.78;;;21.69;34.92
45040;BME280;30778;53.574;7.770;2023-08-06T09:51:54;100590.59;;;21.58;35.45
45040;BME280;30778;53.574;7.770;2023-08-06T09:54:26;100595.19;;;21.27;35.87
45040;BME280;30778;53.574;7.770;2023-08-06T09:56:55;100599.09;;;20.82;35.63
45040;BME280;30778;53.574;7.770;2023-08-06T09:59:22;100592.50;;;20.77;36.58
45040;BME280;30778;53.574;7.770;2023-08-06T10:01:51;100599.22;;;20.71;37.47
45040;BME280;30778;53.574;7.770;2023-08-06T10:04:19;100598.75;;;20.66;35.95
45040;BME280;30778;53.574;7.770;2023-08-06T10:06:48;100598.59;;;20.58;36.51
45040;BME280;30778;53.574;7.770;2023-08-06T10:09:14;100599.59;;;20.15;36.73
45040;BME280;30778;53.574;7.770;2023-08-06T10:11:42;100608.91;;;19.67;37.02
45040;BME280;30778;53.574;7.770;2023-08-06T10:14:13;100604.25;;;20.01;37.59
45040;BME280;30778;53.574;7.770;2023-08-06T10:16:43;100598.25;;;19.78;38.59
45040;BME280;30778;53.574;7.770;2023-08-06T10:19:12;100598.72;;;20.04;37.39
45040;BME280;30778;53.574;7.770;2023-08-06T10:21:38;100595.53;;;20.10;38.30
45040;BME280;30778;53.574;7.770;2023-08-06T10:24:07;100604.00;;;20.04;38.05
45040;BME280;30778;53.574;7.770;2023-08-06T10:26:35;100602.25;;;20.15;38.07
45040;BME280;30778;53.574;7.770;2023-08-06T10:29:00;100595.34;;;20.02;37.83
45040;BME280;30778;53.574;7.770;2023-08-06T10:31:54;100597.78;;;20.36;38.75
45040;BME280;30778;53.574;7.770;2023-08-06T10:34:25;100596.28;;;20.01;38.58
45040;BME280;30778;53.574;7.770;2023-08-06T10:37:15;100594.34;;;20.45;38.30
45040;BME280;30778;53.574;7.770;2023-08-06T10:39:49;100593.09;;;20.49;37.58
45040;BME280;30778;53.574;7.770;2023-08-06T10:42:20;100587.19;;;20.36;38.63
45040;BME280;30778;53.574;7.770;2023-08-06T10:45:17;100591.50;;;20.16;38.30
45040;BME280;30778;53.574;7.770;2023-08-06T10:47:43;100590.34;;;20.09;38.46
45040;BME280;30778;53.574;7.770;2023-08-06T10:50:14;100596.72;;;20.48;38.56
45040;BME280;30778;53.574;7.770;2023-08-06T10:52:45;100595.22;;;20.25;38.62
45040;BME280;30778;53.574;7.770;2023-08-06T10:55:21;100595.41;;;19.91;38.89
45040;BME280;30778;53.574;7.770;2023-08-06T10:57:47;100595.09;;;19.41;39.59
45040;BME280;30778;53.574;7.770;2023-08-06T11:00:13;100599.38;;;19.21;40.23
45040;BME280;30778;53.574;7.770;2023-08-06T11:02:39;100598.94;;;19.59;39.59
45040;BME280;30778;53.574;7.770;2023-08-06T11:05:06;100597.22;;;19.90;39.20
45040;BME280;30778;53.574;7.770;2023-08-06T11:07:39;100595.91;;;19.85;38.90
45040;BME280;30778;53.574;7.770;2023-08-06T11:10:09;100587.03;;;20.17;38.28
45040;BME280;30778;53.574;7.770;2023-08-06T11:12:38;100590.09;;;20.12;38.37
45040;BME280;30778;53.574;7.770;2023-08-06T11:15:06;100586.91;;;20.18;37.68
45040;BME280;30778;53.574;7.770;2023-08-06T11:17:33;100588.84;;;20.37;38.74
45040;BME280;30778;53.574;7.770;2023-08-06T11:20:07;100581.88;;;19.94;38.51
45040;BME280;30778;53.574;7.770;2023-08-06T11:22:36;100578.91;;;19.66;39.58
45040;BME280;30778;53.574;7.770;2023-08-06T11:25:01;100582.28;;;20.10;39.64
45040;BME280;30778;53.574;7.770;2023-08-06T11:27:27;100580.13;;;20.25;39.24
45040;BME280;30778;53.574;7.770;2023-08-06T11:29:56;100579.94;;;20.38;38.88
45040;BME280;30778;53.574;7.770;2023-08-06T11:32:24;100579.72;;;20.91;38.27
45040;BME280;30778;53.574;7.770;2023-08-06T11:34:53;100587.75;;;20.40;37.95
45040;BME280;30778;53.574;7.770;2023-08-06T11:37:23;100583.09;;;20.63;38.44
45040;BME280;30778;53.574;7.770;2023-08-06T11:39:51;100585.66;;;20.74;38.21
45040;BME280;30778;53.574;7.770;2023-08-06T11:42:19;100594.19;;;21.28;36.79
45040;BME280;30778;53.574;7.770;2023-08-06T11:44:45;100588.31;;;21.44;36.92
45040;BME280;30778;53.574;7.770;2023-08-06T11:47:17;100587.59;;;21.12;36.98
45040;BME280;30778;53.574;7.770;2023-08-06T11:49:47;100583.59;;;21.57;36.59
45040;BME280;30778;53.574;7.770;2023-08-06T11:52:18;100588.75;;;21.49;37.15
45040;BME280;30778;53.574;7.770;2023-08-06T11:55:04;100586.00;;;20.90;37.69
45040;BME280;30778;53.574;7.770;2023-08-06T11:57:36;100592.44;;;20.88;37.58
45040;BME280;30778;53.574;7.770;2023-08-06T12:00:12;100589.81;;;21.07;36.94
45040;BME280;30778;53.574;7.770;2023-08-06T12:02:42;100586.66;;;20.83;37.76
45040;BME280;30778;53.574;7.770;2023-08-06T12:05:15;100597.84;;;21.36;37.08
45040;BME280;30778;53.574;7.770;2023-08-06T12:07:45;100599.69;;;21.55;36.68
45040;BME280;30778;53.574;7.770;2023-08-06T12:10:14;100588.72;;;21.20;36.35
45040;BME280;30778;53.574;7.770;2023-08-06T12:12:40;100589.41;;;21.02;37.49
45040;BME280;30778;53.574;7.770;2023-08-06T12:15:06;100586.16;;;20.58;37.98
45040;BME280;30778;53.574;7.770;2023-08-06T12:17:32;100590.34;;;20.30;38.38
45040;BME280;30778;53.574;7.770;2023-08-06T12:19:58;100589.56;;;20.18;39.43
45040;BME280;30778;53.574;7.770;2023-08-06T12:22:26;100578.31;;;20.57;38.11
45040;BME280;30778;53.574;7.770;2023-08-06T12:24:52;100590.28;;;20.82;37.83
45040;BME280;30778;53.574;7.770;2023-08-06T12:27:18;100583.53;;;20.68;37.21
45040;BME280;30778;53.574;7.770;2023-08-06T12:29:45;100579.31;;;20.96;37.17
45040;BME280;30778;53.574;7.770;2023-08-06T12:32:11;100580.44;;;20.32;38.89
45040;BME280;30778;53.574;7.770;2023-08-06T12:34:41;100574.72;;;20.67;38.42
45040;BME280;30778;53.574;7.770;2023-08-06T12:37:09;100568.88;;;21.43;37.41
45040;BME280;30778;53.574;7.770;2023-08-06T12:39:35;100555.84;;;21.30;36.33
45040;BME280;30778;53.574;7.770;2023-08-06T12:42:02;100558.88;;;20.87;36.95
45040;BME280;30778;53.574;7.770;2023-08-06T12:44:28;100561.06;;;20.82;37.40
45040;BME280;30778;53.574;7.770;2023-08-06T12:46:54;100563.97;;;21.19;36.53
45040;BME280;30778;53.574;7.770;2023-08-06T12:49:19;100565.09;;;21.46;36.19
45040;BME280;30778;53.574;7.770;2023-08-06T12:51:50;100568.75;;;21.74;36.12
45040;BME280;30778;53.574;7.770;2023-08-06T12:54:17;100570.69;;;21.43;37.20
45040;BME280;30778;53.574;7.770;2023-08-06T12:56:43;100574.63;;;21.48;36.82
45040;BME280;30778;53.574;7.770;2023-08-06T12:59:09;100562.94;;;22.08;35.54
45040;BME280;30778;53.574;7.770;2023-08-06T13:01:35;100558.81;;;21.76;35.77
45040;BME280;30778;53.574;7.770;2023-08-06T13:04:00;100566.19;;;21.14;37.62